ZS5AM Weather Reports


time (UTC)temp
F
wind
direction
speed
knots
gust
knots
rain 1hr
in
rain 24hr
in
rain mn
in
humidity
%
barometer
mb
20211017164618 53 360 0.0 0.0 0.04 0.54 0.44 96 1021.5
20211017163116 54 210 0.0 0.0 0.03 0.52 0.43 96 1021.2
20211017161621 54 210 0.0 0.0 0.02 0.51 0.42 96 1020.9
20211017160059 54 210 0.0 1.7 0.02 0.50 0.41 95 1020.5
20211017154543 54 208 0.0 0.0 0.01 0.50 0.40 95 1020.4
20211017153052 54 211 0.0 0.0 0.00 0.49 0.39 95 1020.1
20211017151611 54 180 0.0 0.0 0.00 0.49 0.39 95 1019.9
20211017150111 54 204 0.0 2.6 0.00 0.49 0.39 95 1019.8
20211017144551 54 207 0.0 0.0 0.00 0.49 0.39 95 1019.6
20211017143053 55 207 0.0 0.0 0.00 0.49 0.39 94 1019.4
20211017141600 55 207 0.0 0.9 0.00 0.49 0.39 94 1019.2
20211017140037 55 204 0.0 0.0 0.00 0.49 0.39 94 1019.0
20211017134612 55 204 0.0 0.0 0.00 0.49 0.39 94 1018.9
20211017133039 56 204 0.0 0.0 0.00 0.49 0.39 93 1018.7
20211017131537 56 204 0.0 0.0 0.00 0.49 0.39 93 1018.5
20211017130031 56 210 0.0 0.9 0.00 0.49 0.39 94 1018.2
20211017124546 56 355 0.0 0.0 0.01 0.49 0.39 94 1018.3
20211017123053 56 355 0.0 2.6 0.01 0.49 0.39 94 1018.4
20211017121620 56 223 0.0 0.0 0.02 0.49 0.39 94 1018.4
20211017120031 55 223 0.0 0.0 0.02 0.49 0.39 95 1018.6
20211017114537 55 223 0.0 0.0 0.01 0.48 0.39 94 1018.7
20211017113113 56 217 0.0 0.0 0.01 0.48 0.39 94 1018.8
20211017111552 55 217 0.0 0.0 0.00 0.47 0.38 93 1018.9
20211017110054 56 217 0.0 0.0 0.00 0.47 0.38 93 1018.8
20211017104539 56 217 0.0 0.0 0.00 0.47 0.38 93 1018.8
20211017103037 56 217 0.0 0.0 0.00 0.47 0.38 93 1019.0
20211017101525 56 167 0.0 0.0 0.00 0.47 0.38 93 1019.1
20211017100143 56 167 0.0 0.0 0.00 0.47 0.38 94 1019.2
20211017094532 56 167 0.0 2.6 0.00 0.47 0.38 94 1019.2
20211017091529 55 167 0.0 0.0 0.00 0.47 0.38 95 1019.5
20211017090023 55 165 0.0 0.0 0.00 0.47 0.38 95 1019.4
20211017084529 55 244 0.0 0.0 0.00 0.47 0.38 95 1019.5
20211017083031 55 48 0.0 0.0 0.00 0.47 0.38 96 1019.6
20211017081524 55 45 0.0 0.0 0.00 0.47 0.38 96 1019.7
20211017080055 55 63 0.0 0.0 0.00 0.47 0.38 96 1019.7
20211017074515 54 184 0.0 0.0 0.00 0.47 0.38 95 1019.7
20211017073018 54 302 0.0 0.0 0.00 0.47 0.38 96 1019.6
20211017071523 54 200 0.0 0.0 0.00 0.47 0.38 96 1019.6
20211017070037 54 202 0.0 0.0 0.00 0.47 0.38 96 1019.7
20211017064508 54 206 0.0 0.0 0.00 0.47 0.38 96 1019.4
20211017063008 54 192 0.0 0.0 0.01 0.47 0.38 96 1019.3
20211017061540 54 217 0.0 0.0 0.01 0.47 0.38 96 1019.2
20211017060004 53 267 0.0 0.0 0.01 0.47 0.38 96 1019.1
20211017054506 53 182 0.0 0.0 0.01 0.47 0.38 96 1019.0
20211017053145 53 96 0.0 1.7 0.00 0.46 0.37 96 1019.0
20211017051652 53 247 0.0 1.7 0.01 0.46 0.37 96 1018.6
20211017050124 53 254 0.0 0.0 0.01 0.46 0.37 96 1018.6
20211017044633 53 10 0.0 1.7 0.02 0.46 0.37 96 1018.7
20211017043136 53 240 0.0 0.0 0.02 0.46 0.37 96 1018.6
20211017041643 53 69 0.0 2.6 0.02 0.46 0.36 96 1018.3
20211017040158 53 171 0.0 0.0 0.03 0.46 0.36 96 1018.0
20211017034617 53 184 0.0 1.7 0.02 0.45 0.35 96 1017.7
20211017033125 53 163 0.0 1.7 0.06 0.45 0.35 96 1017.3
20211017031613 53 163 0.0 0.0 0.09 0.44 0.35 96 1017.1
20211017030101 54 163 0.0 0.9 0.14 0.43 0.33 96 1017.1
20211017024552 54 163 0.0 0.0 0.18 0.42 0.32 96 1017.0
20211017023103 55 180 0.0 0.9 0.17 0.39 0.30 96 1016.7
20211017021601 55 212 0.0 0.9 0.13 0.35 0.25 96 1016.8
20211017020041 56 182 0.0 2.6 0.06 0.28 0.19 96 1016.0
20211017014657 56 198 0.0 1.7 0.02 0.24 0.14 96 1016.4
20211017013050 56 175 0.0 0.0 0.02 0.22 0.13 96 1016.1
20211017011527 56 175 0.0 0.0 0.02 0.22 0.13 96 1016.1
20211017010034 56 175 0.9 7.0 0.02 0.22 0.13 96 1016.0
20211017004542 56 220 0.0 0.0 0.01 0.21 0.12 96 1015.8
20211017003036 56 184 0.0 0.0 0.01 0.20 0.11 96 1015.7
20211017001548 56 184 0.0 0.0 0.02 0.20 0.11 96 1015.8
20211017000025 56 217 0.0 0.0 0.03 0.20 0.11 96 1015.0
20211016234529 56 16 0.0 1.7 0.05 0.20 0.11 96 1015.4
20211016233021 56 215 0.0 0.0 0.06 0.20 0.10 96 1015.6
20211016231519 56 319 0.0 0.0 0.08 0.19 0.09 96 1015.6
20211016230021 56 343 0.0 0.0 0.08 0.17 0.08 96 1015.3
20211016224523 56 343 0.0 0.0 0.08 0.16 0.06 96 1016.4
20211016223015 57 342 0.0 0.0 0.07 0.14 0.05 96 1015.8
20211016221513 57 342 0.0 0.0 0.05 0.11 0.02 96 1016.0
20211016220010 57 342 0.0 0.0 0.03 0.09 0.00 96 1015.7
20211016214509 57 342 0.0 0.0 0.02 0.08 0.08 96 1015.5
20211016213009 57 342 0.0 0.0 0.01 0.07 0.07 96 1016.0
20211016211508 57 342 0.0 0.0 0.01 0.06 0.06 96 1015.6
20211016210005 57 342 0.0 0.0 0.02 0.06 0.06 96 1015.6
20211016204523 57 342 0.0 0.0 0.03 0.08 0.06 96 1015.7
20211016203006 56 342 0.0 0.0 0.04 0.08 0.06 95 1015.8
20211016201505 56 342 0.0 0.0 0.04 0.07 0.06 95 1015.3
20211016200002 56 343 0.0 0.0 0.03 0.06 0.05 95 1015.9
20211016194632 56 344 0.0 0.0 0.02 0.05 0.03 95 1015.4
20211016193059 56 273 0.0 0.0 0.01 0.04 0.02 95 1015.2
20211016191626 56 283 0.0 1.7 0.00 0.03 0.02 94 1014.4
20211016190126 57 47 0.0 0.0 0.01 0.03 0.02 94 1014.7
20211016184612 57 292 0.0 0.0 0.02 0.03 0.02 94 1014.4
20211016183140 57 292 0.0 0.0 0.02 0.03 0.02 93 1014.5
20211016181700 57 292 0.0 0.9 0.02 0.03 0.02 93 1014.5
20211016174624 58 169 0.0 0.0 0.00 0.02 0.00 91 1013.9
20211016173116 58 170 0.0 0.0 0.00 0.02 0.00 91 1014.1
20211016171626 58 332 0.0 0.0 0.00 0.02 0.00 91 1013.5
20211016170058 57 159 0.0 0.0 0.00 0.02 0.00 92 1012.7